createdAt,value
2018-04-16T00:00:34.871Z,73.50
2018-04-16T00:03:04.351Z,73.40
2018-04-16T00:05:34.802Z,74.00
2018-04-16T00:08:03.934Z,74.00
2018-04-16T00:10:33.622Z,73.90
2018-04-16T00:13:03.323Z,74.20
2018-04-16T00:15:32.435Z,74.30
2018-04-16T00:18:02.843Z,74.60
2018-04-16T00:20:32.315Z,74.70
2018-04-16T00:23:01.759Z,74.30
2018-04-16T00:25:31.337Z,74.90
2018-04-16T00:28:01.035Z,74.10
2018-04-16T00:30:30.729Z,74.40
2018-04-16T00:33:05.883Z,74.50
2018-04-16T00:35:41.709Z,74.70
2018-04-16T00:38:16.739Z,74.70
2018-04-16T00:40:51.911Z,74.80
2018-04-16T00:43:27.726Z,75.00
2018-04-16T00:46:02.831Z,75.00
2018-04-16T00:48:37.791Z,74.80
2018-04-16T00:54:21.735Z,74.50
2018-04-16T00:56:56.993Z,74.70
2018-04-16T00:59:32.050Z,74.90
2018-04-16T01:02:07.843Z,75.00
2018-04-16T01:04:43.003Z,75.10
2018-04-16T01:07:18.208Z,75.30
2018-04-16T01:09:53.314Z,75.40
2018-04-16T01:12:29.111Z,75.70
2018-04-16T01:15:04.223Z,75.70
2018-04-16T01:17:39.167Z,75.50
2018-04-16T01:20:14.186Z,75.50
2018-04-16T01:22:49.329Z,75.60
2018-04-16T01:25:23.719Z,75.80
2018-04-16T01:27:59.563Z,76.30
2018-04-16T01:30:34.613Z,76.30
2018-04-16T01:33:09.730Z,76.80
2018-04-16T01:35:44.885Z,77.00
2018-04-16T01:38:20.832Z,77.00
2018-04-16T01:40:55.822Z,76.90
2018-04-16T01:43:31.016Z,77.20
2018-04-16T01:46:06.851Z,77.20
2018-04-16T01:48:41.879Z,77.20
2018-04-16T01:51:17.047Z,77.80
2018-04-16T01:53:52.859Z,77.40
2018-04-16T01:56:27.878Z,77.40
2018-04-16T01:59:02.844Z,77.70
2018-04-16T02:01:37.863Z,77.60
2018-04-16T02:04:12.898Z,78.30
2018-04-16T02:06:47.892Z,77.60
2018-04-16T02:09:22.888Z,77.80
2018-04-16T02:11:58.679Z,77.60
2018-04-16T02:14:33.643Z,77.60
2018-04-16T02:17:08.702Z,77.70
2018-04-16T02:19:44.499Z,77.70
2018-04-16T02:22:19.518Z,77.60
2018-04-16T02:24:54.693Z,77.70
2018-04-16T02:27:29.821Z,78.00
2018-04-16T02:30:05.007Z,78.10
2018-04-16T02:32:40.755Z,78.20
2018-04-16T02:35:16.512Z,78.20
2018-04-16T02:37:51.687Z,78.10
2018-04-16T02:40:26.863Z,78.20
2018-04-16T02:43:02.234Z,78.30
2018-04-16T02:48:39.124Z,78.30
2018-04-16T02:51:14.860Z,78.70
2018-04-16T02:53:49.907Z,78.70
2018-04-16T02:56:25.774Z,78.90
2018-04-16T02:59:00.887Z,78.90
2018-04-16T03:01:35.860Z,78.90
2018-04-16T03:04:10.570Z,79.10
2018-04-16T03:06:45.703Z,79.20
2018-04-16T03:09:21.517Z,79.40
2018-04-16T03:11:56.632Z,79.40
2018-04-16T03:17:32.077Z,79.90
2018-04-16T03:20:07.080Z,79.90
2018-04-16T03:22:41.895Z,80.20
2018-04-16T03:25:16.920Z,80.50
2018-04-16T03:30:55.044Z,81.00
2018-04-16T03:33:30.075Z,81.10
2018-04-16T03:36:05.200Z,81.30
2018-04-16T03:38:40.211Z,81.60
2018-04-16T03:41:15.227Z,81.60
2018-04-16T03:43:50.251Z,81.90
2018-04-16T03:46:26.119Z,81.70
2018-04-16T03:49:01.104Z,81.70
2018-04-16T03:51:36.079Z,81.80
2018-04-16T03:54:05.633Z,82.00
2018-04-16T03:56:35.327Z,82.00
2018-04-16T03:59:05.055Z,81.90
2018-04-16T04:01:34.762Z,81.90
2018-04-16T04:04:04.499Z,81.90
2018-04-16T04:06:34.203Z,82.20
2018-04-16T04:09:03.608Z,82.10
2018-04-16T04:11:34.071Z,81.80
2018-04-16T04:14:03.803Z,82.20
2018-04-16T04:16:33.291Z,82.30
2018-04-16T04:19:02.999Z,82.50
2018-04-16T04:21:32.731Z,82.60
2018-04-16T04:24:13.555Z,82.50
2018-04-16T04:26:55.095Z,82.70
2018-04-16T04:29:37.767Z,82.70
2018-04-16T04:32:07.492Z,82.80
2018-04-16T04:34:37.207Z,82.90
2018-04-16T04:37:06.925Z,83.20
2018-04-16T04:39:36.627Z,83.10
2018-04-16T04:42:06.356Z,83.20
2018-04-16T04:44:36.066Z,83.00
2018-04-16T04:47:05.786Z,83.20
2018-04-16T04:49:35.490Z,83.30
2018-04-16T04:52:05.219Z,83.20
2018-04-16T04:54:34.954Z,83.40
2018-04-16T04:57:04.679Z,83.30
2018-04-16T04:59:34.383Z,83.40
2018-04-16T05:02:04.115Z,83.50
2018-04-16T05:04:33.806Z,83.30
2018-04-16T05:07:03.287Z,83.50
2018-04-16T05:09:33.752Z,83.20
2018-04-16T05:12:03.463Z,83.20
2018-04-16T05:14:33.159Z,83.30
2018-04-16T05:17:02.891Z,83.30
2018-04-16T05:19:32.352Z,83.40
2018-04-16T05:22:02.850Z,83.60
2018-04-16T05:24:32.543Z,83.60
2018-04-16T05:27:02.263Z,83.70
2018-04-16T05:29:31.975Z,83.70
2018-04-16T05:32:01.671Z,83.40
2018-04-16T05:34:31.383Z,83.10
2018-04-16T05:37:01.055Z,83.20
2018-04-16T05:39:30.791Z,83.30
2018-04-16T05:42:00.476Z,83.50
2018-04-16T05:44:30.175Z,83.40
2018-04-16T05:47:00.623Z,83.50
2018-04-16T05:49:36.739Z,83.40
2018-04-16T05:52:06.703Z,83.40
2018-04-16T05:54:36.186Z,83.40
2018-04-16T05:57:06.666Z,83.40
2018-04-16T05:59:36.403Z,83.30
2018-04-16T06:02:06.263Z,83.30
2018-04-16T06:04:35.976Z,83.30
2018-04-16T06:07:05.675Z,83.20
2018-04-16T06:09:35.387Z,83.50
2018-04-16T06:12:05.095Z,83.50
2018-04-16T06:14:35.047Z,83.60
2018-04-16T06:17:09.490Z,83.40
2018-04-16T06:19:39.751Z,84.00
2018-04-16T06:22:09.445Z,83.90
2018-04-16T06:24:39.171Z,83.80
2018-04-16T06:27:08.892Z,83.90
2018-04-16T06:29:38.619Z,83.90
2018-04-16T06:32:08.326Z,84.00
2018-04-16T06:34:38.057Z,84.00
2018-04-16T06:37:07.748Z,83.80
2018-04-16T06:39:38.433Z,83.80
2018-04-16T06:42:08.127Z,83.90
2018-04-16T06:44:38.601Z,84.50
2018-04-16T06:47:08.300Z,84.40
2018-04-16T06:49:38.015Z,84.20
2018-04-16T06:52:07.697Z,84.20
2018-04-16T06:54:38.166Z,84.20
2018-04-16T06:57:08.036Z,84.10
2018-04-16T06:59:38.517Z,84.20
2018-04-16T07:02:08.236Z,84.20
2018-04-16T07:04:37.944Z,83.80
2018-04-16T07:07:08.030Z,83.80
2018-04-16T07:09:37.985Z,83.80
2018-04-16T07:12:07.657Z,83.70
2018-04-16T07:14:37.351Z,83.70
2018-04-16T07:17:06.792Z,83.40
2018-04-16T07:19:36.268Z,83.30
2018-04-16T07:22:05.942Z,83.30
2018-04-16T07:24:35.631Z,83.40
2018-04-16T07:27:05.316Z,83.40
2018-04-16T07:29:35.015Z,83.50
2018-04-16T07:32:05.454Z,83.00
2018-04-16T07:34:35.139Z,82.90
2018-04-16T07:37:04.835Z,82.80
2018-04-16T07:39:34.527Z,82.90
2018-04-16T07:42:04.970Z,82.90
2018-04-16T07:44:35.434Z,82.70
2018-04-16T07:47:05.117Z,82.70
2018-04-16T07:49:34.812Z,82.50
2018-04-16T07:52:04.487Z,82.40
2018-04-16T07:54:34.187Z,82.10
2018-04-16T07:57:03.863Z,82.30
2018-04-16T07:59:33.548Z,82.00
2018-04-16T08:02:03.227Z,82.00
2018-04-16T08:04:32.930Z,81.80
2018-04-16T08:07:02.383Z,81.70
2018-04-16T08:09:32.072Z,81.10
2018-04-16T08:12:02.285Z,81.00
2018-04-16T08:14:32.739Z,80.70
2018-04-16T08:17:02.407Z,80.60
2018-04-16T08:19:32.102Z,80.60
2018-04-16T08:22:01.775Z,81.00
2018-04-16T08:24:31.502Z,80.50
2018-04-16T08:27:01.194Z,80.10
2018-04-16T08:29:31.076Z,79.90
2018-04-16T08:32:01.302Z,79.40
2018-04-16T08:34:31.999Z,79.70
2018-04-16T08:37:01.667Z,79.70
2018-04-16T08:39:31.370Z,79.40
2018-04-16T08:42:01.795Z,79.00
2018-04-16T08:44:31.507Z,78.90
2018-04-16T08:47:01.180Z,78.30
2018-04-16T08:49:31.334Z,78.90
2018-04-16T08:52:01.129Z,78.10
2018-04-16T08:54:31.887Z,77.80
2018-04-16T08:57:01.672Z,77.70
2018-04-16T08:59:31.872Z,78.20
2018-04-16T09:02:01.568Z,78.00
2018-04-16T09:04:31.070Z,77.00
2018-04-16T09:07:00.761Z,76.10
2018-04-16T09:09:30.428Z,76.50
2018-04-16T09:12:00.143Z,75.30
2018-04-16T09:14:30.119Z,75.80
2018-04-16T09:16:59.815Z,76.80
2018-04-16T09:19:29.479Z,76.00
2018-04-16T09:21:59.311Z,75.10
2018-04-16T09:24:30.387Z,74.40
2018-04-16T09:27:01.091Z,76.10
2018-04-16T09:29:30.770Z,76.00
2018-04-16T09:32:00.460Z,75.00
2018-04-16T09:34:30.906Z,74.00
2018-04-16T09:37:00.607Z,73.80
2018-04-16T09:39:31.060Z,74.20
2018-04-16T09:42:00.945Z,74.20
2018-04-16T09:44:31.399Z,73.80
2018-04-16T09:47:01.100Z,73.70
2018-04-16T09:49:30.560Z,74.00
2018-04-16T09:52:00.263Z,73.70
2018-04-16T09:54:29.943Z,72.70
2018-04-16T09:56:59.639Z,72.80
2018-04-16T09:59:29.327Z,72.80
2018-04-16T10:01:58.807Z,69.70
2018-04-16T10:04:28.475Z,71.40
2018-04-16T10:06:58.187Z,71.10
2018-04-16T10:09:27.862Z,71.10
2018-04-16T10:11:58.312Z,70.80
2018-04-16T10:14:27.982Z,70.80
2018-04-16T10:16:58.459Z,69.30
2018-04-16T10:19:28.114Z,69.20
2018-04-16T10:21:58.583Z,67.10
2018-04-16T10:24:28.278Z,67.00
2018-04-16T10:26:57.756Z,65.80
2018-04-16T10:29:27.423Z,65.50
2018-04-16T10:31:57.119Z,64.90
2018-04-16T10:34:26.554Z,65.00
2018-04-16T10:36:56.027Z,66.60
2018-04-16T10:39:25.714Z,65.10
2018-04-16T10:41:55.439Z,63.40
2018-04-16T10:44:25.127Z,63.10
2018-04-16T10:46:54.832Z,62.20
2018-04-16T10:49:24.511Z,62.10
2018-04-16T10:51:54.218Z,59.30
2018-04-16T10:54:23.911Z,60.00
2018-04-16T10:56:53.607Z,60.40
2018-04-16T10:59:23.290Z,58.80
2018-04-16T11:01:53.058Z,59.70
2018-04-16T11:04:23.287Z,60.70
2018-04-16T11:06:53.751Z,62.10
2018-04-16T11:09:23.432Z,62.10
2018-04-16T11:11:53.924Z,61.00
2018-04-16T11:14:23.368Z,60.90
2018-04-16T11:16:52.839Z,62.20
2018-04-16T11:19:22.522Z,61.70
2018-04-16T11:21:52.475Z,64.20
2018-04-16T11:24:22.235Z,64.90
2018-04-16T11:26:51.938Z,64.50
2018-04-16T11:29:21.380Z,64.80
2018-04-16T11:31:51.063Z,63.20
2018-04-16T11:34:20.739Z,64.70
2018-04-16T11:36:50.442Z,66.20
2018-04-16T11:39:20.892Z,66.60
2018-04-16T11:41:50.596Z,66.60
2018-04-16T11:44:20.286Z,66.10
2018-04-16T11:46:50.472Z,65.10
2018-04-16T11:49:20.591Z,65.40
2018-04-16T11:51:50.297Z,66.10
2018-04-16T11:54:19.983Z,64.90
2018-04-16T11:56:49.688Z,61.60
2018-04-16T11:59:19.372Z,61.30
2018-04-16T12:01:49.082Z,61.90
2018-04-16T12:04:18.810Z,64.50
2018-04-16T12:06:49.440Z,60.90
2018-04-16T12:09:19.352Z,60.70
2018-04-16T12:11:49.052Z,60.30
2018-04-16T12:14:18.739Z,59.20
2018-04-16T12:16:49.241Z,59.90
2018-04-16T12:19:18.703Z,59.80
2018-04-16T12:21:48.407Z,58.30
2018-04-16T12:24:18.100Z,57.70
2018-04-16T12:26:48.573Z,58.60
2018-04-16T12:29:18.315Z,58.50
2018-04-16T12:31:48.787Z,58.20
2018-04-16T12:34:18.471Z,58.70
2018-04-16T12:36:48.964Z,60.00
2018-04-16T12:39:18.647Z,60.00
2018-04-16T12:41:49.178Z,57.60
2018-04-16T12:44:18.879Z,57.50
2018-04-16T12:46:48.588Z,58.10
2018-04-16T12:49:19.064Z,58.70
2018-04-16T12:51:48.768Z,58.70
2018-04-16T12:54:18.463Z,58.50
2018-04-16T12:56:48.158Z,58.20
2018-04-16T12:59:17.859Z,56.80
2018-04-16T13:01:47.545Z,57.10
2018-04-16T13:04:17.248Z,57.70
2018-04-16T13:06:46.931Z,57.30
2018-04-16T13:09:17.399Z,57.90
2018-04-16T13:11:47.083Z,57.90
2018-04-16T13:14:17.551Z,55.80
2018-04-16T13:16:47.238Z,55.70
2018-04-16T13:19:16.947Z,55.60
2018-04-16T13:21:46.630Z,55.50
2018-04-16T13:24:17.099Z,54.60
2018-04-16T13:26:46.771Z,54.50
2018-04-16T13:29:16.481Z,52.00
2018-04-16T13:31:46.918Z,48.70
2018-04-16T13:34:16.633Z,48.60
2018-04-16T13:36:46.339Z,47.60
2018-04-16T13:39:16.789Z,47.80
2018-04-16T13:41:46.477Z,47.70
2018-04-16T13:44:16.172Z,46.70
2018-04-16T13:46:46.616Z,48.80
2018-04-16T13:49:16.325Z,48.70
2018-04-16T13:51:46.012Z,50.30
2018-04-16T13:54:16.480Z,49.80
2018-04-16T13:56:46.170Z,49.60
2018-04-16T13:59:15.871Z,49.30
2018-04-16T14:01:46.312Z,51.40
2018-04-16T14:04:16.036Z,51.30
2018-04-16T14:06:45.713Z,49.80
2018-04-16T14:09:15.619Z,47.70
2018-04-16T14:11:46.062Z,47.00
2018-04-16T14:14:15.763Z,47.00
2018-04-16T14:16:45.203Z,46.40
2018-04-16T14:19:14.948Z,46.10
2018-04-16T14:21:44.714Z,46.80
2018-04-16T14:24:14.481Z,47.20
2018-04-16T14:26:44.321Z,45.30
2018-04-16T14:29:14.020Z,44.90
2018-04-16T14:31:45.067Z,45.00
2018-04-16T14:34:14.763Z,44.80
2018-04-16T14:36:45.211Z,44.90
2018-04-16T14:39:14.911Z,44.80
2018-04-16T14:41:44.612Z,45.30
2018-04-16T14:44:14.312Z,45.40
2018-04-16T14:46:44.770Z,44.80
2018-04-16T14:49:14.471Z,44.80
2018-04-16T14:51:44.164Z,48.50
2018-04-16T14:54:13.889Z,52.10
2018-04-16T14:56:43.625Z,53.40
2018-04-16T14:59:13.295Z,53.80
2018-04-16T15:01:42.976Z,54.20
2018-04-16T15:04:12.456Z,54.80
2018-04-16T15:06:42.139Z,55.10
2018-04-16T15:09:11.834Z,54.30
2018-04-16T15:11:41.532Z,55.40
2018-04-16T15:14:11.243Z,55.90
2018-04-16T15:16:41.675Z,55.20
2018-04-16T15:19:12.127Z,55.40
2018-04-16T15:21:41.807Z,55.40
2018-04-16T15:24:11.514Z,53.50
2018-04-16T15:26:41.197Z,55.20
2018-04-16T15:29:10.907Z,54.80
2018-04-16T15:31:40.585Z,55.40
2018-04-16T15:34:10.291Z,54.00
2018-04-16T15:36:39.984Z,53.90
2018-04-16T15:39:09.682Z,55.00
2018-04-16T15:41:40.134Z,54.70
2018-04-16T15:44:10.189Z,54.90
2018-04-16T15:46:40.155Z,54.40
2018-04-16T15:49:09.856Z,53.50
2018-04-16T15:51:39.536Z,53.90
2018-04-16T15:54:10.003Z,55.90
2018-04-16T15:56:39.683Z,55.90
2018-04-16T15:59:09.392Z,54.70
2018-04-16T16:01:39.843Z,54.40
2018-04-16T16:04:09.555Z,54.30
2018-04-16T16:06:39.238Z,54.20
2018-04-16T16:09:09.731Z,54.00
2018-04-16T16:11:39.427Z,54.00
2018-04-16T16:14:09.141Z,54.00
2018-04-16T16:16:38.824Z,53.60
2018-04-16T16:19:08.560Z,53.40
2018-04-16T16:21:38.256Z,53.50
2018-04-16T16:24:07.938Z,53.30
2018-04-16T16:26:37.621Z,52.80
2018-04-16T16:29:08.067Z,51.50
2018-04-16T16:31:37.771Z,51.40
2018-04-16T16:34:07.452Z,51.70
2018-04-16T16:36:37.927Z,54.10
2018-04-16T16:39:07.288Z,54.10
2018-04-16T16:41:37.763Z,52.50
2018-04-16T16:44:07.452Z,52.50
2018-04-16T16:46:37.147Z,52.80
2018-04-16T16:49:06.831Z,54.10
2018-04-16T16:51:36.544Z,53.60
2018-04-16T16:54:05.947Z,52.60
2018-04-16T16:56:35.799Z,52.70
2018-04-16T16:59:05.479Z,52.60
2018-04-16T17:01:35.946Z,55.10
2018-04-16T17:04:05.627Z,55.10
2018-04-16T17:06:35.322Z,53.30
2018-04-16T17:09:05.898Z,53.90
2018-04-16T17:11:35.364Z,53.90
2018-04-16T17:14:05.807Z,54.90
2018-04-16T17:16:35.519Z,54.90
2018-04-16T17:19:05.202Z,55.40
2018-04-16T17:21:34.904Z,55.30
2018-04-16T17:24:05.359Z,54.80
2018-04-16T17:26:35.067Z,54.70
2018-04-16T17:29:05.551Z,54.90
2018-04-16T17:31:35.295Z,55.50
2018-04-16T17:34:05.151Z,51.50
2018-04-16T17:36:34.947Z,50.30
2018-04-16T17:39:03.789Z,50.50
2018-04-16T17:41:34.255Z,50.40
2018-04-16T17:44:03.948Z,50.30
2018-04-16T17:46:33.651Z,51.00
2018-04-16T17:49:04.105Z,51.90
2018-04-16T17:51:33.803Z,51.90
2018-04-16T17:54:03.147Z,53.00
2018-04-16T17:56:32.853Z,55.60
2018-04-16T17:59:02.399Z,57.20
2018-04-16T18:01:32.126Z,58.00
2018-04-16T18:04:01.860Z,57.10
2018-04-16T18:06:31.559Z,56.10
2018-04-16T18:09:01.258Z,57.60
2018-04-16T18:11:30.960Z,58.60
2018-04-16T18:14:00.655Z,58.70
2018-04-16T18:16:30.429Z,59.40
2018-04-16T18:19:00.279Z,56.50
2018-04-16T18:21:30.004Z,57.80
2018-04-16T18:23:59.707Z,58.70
2018-04-16T18:26:29.432Z,59.70
2018-04-16T18:28:59.116Z,59.70
2018-04-16T18:31:29.582Z,60.90
2018-04-16T18:33:59.318Z,60.90
2018-04-16T18:36:29.188Z,61.00
2018-04-16T18:38:58.871Z,60.90
2018-04-16T18:41:29.357Z,61.70
2018-04-16T18:43:59.235Z,61.80
2018-04-16T18:46:28.695Z,61.30
2018-04-16T18:48:58.371Z,61.60
2018-04-16T18:51:28.084Z,61.30
2018-04-16T18:53:57.775Z,60.80
2018-04-16T18:56:27.496Z,60.60
2018-04-16T18:58:57.191Z,60.80
2018-04-16T19:01:26.950Z,60.90
2018-04-16T19:03:56.639Z,60.20
2018-04-16T19:06:26.347Z,61.10
2018-04-16T19:08:56.036Z,62.30
2018-04-16T19:11:25.750Z,62.70
2018-04-16T19:13:55.427Z,62.40
2018-04-16T19:16:25.563Z,62.40
2018-04-16T19:18:55.243Z,62.40
2018-04-16T19:21:30.277Z,63.10
2018-04-16T19:24:00.744Z,62.50
2018-04-16T19:26:30.483Z,62.50
2018-04-16T19:29:00.176Z,63.10
2018-04-16T19:31:29.874Z,63.70
2018-04-16T19:34:04.990Z,63.90
2018-04-16T19:36:34.701Z,63.90
2018-04-16T19:39:03.715Z,64.10
2018-04-16T19:41:38.795Z,64.60
2018-04-16T19:44:08.491Z,64.00
2018-04-16T19:46:38.408Z,63.20
2018-04-16T19:49:13.392Z,63.50
2018-04-16T19:51:43.071Z,63.20
2018-04-16T19:54:12.777Z,64.30
2018-04-16T19:56:47.956Z,64.80
2018-04-16T19:59:17.668Z,64.80
2018-04-16T20:01:52.900Z,65.10
2018-04-16T20:04:22.589Z,65.20
2018-04-16T20:06:53.084Z,65.50
2018-04-16T20:09:22.776Z,65.50
2018-04-16T20:11:52.491Z,65.80
2018-04-16T20:14:22.003Z,65.70
2018-04-16T20:16:51.699Z,65.70
2018-04-16T20:19:21.407Z,65.50
2018-04-16T20:21:51.095Z,65.60
2018-04-16T20:24:20.808Z,65.60
2018-04-16T20:26:50.504Z,65.10
2018-04-16T20:29:20.239Z,63.50
2018-04-16T20:31:50.300Z,63.60
2018-04-16T20:34:20.003Z,64.20
2018-04-16T20:36:49.758Z,65.10
2018-04-16T20:39:19.467Z,65.90
2018-04-16T20:41:49.162Z,65.90
2018-04-16T20:44:18.893Z,64.90
2018-04-16T20:46:48.672Z,65.20
2018-04-16T20:49:19.591Z,66.10
2018-04-16T20:51:50.219Z,66.10
2018-04-16T20:54:19.922Z,66.60
2018-04-16T20:56:49.623Z,66.50
2018-04-16T20:59:19.332Z,66.70
2018-04-16T21:01:49.023Z,67.00
2018-04-16T21:04:19.129Z,67.50
2018-04-16T21:06:49.167Z,67.90
2018-04-16T21:09:18.883Z,68.30
2018-04-16T21:11:48.567Z,68.30
2018-04-16T21:14:18.274Z,68.30
2018-04-16T21:16:47.950Z,68.10
2018-04-16T21:19:18.418Z,68.60
2018-04-16T21:21:47.859Z,68.60
2018-04-16T21:24:17.562Z,68.70
2018-04-16T21:26:47.754Z,68.70
2018-04-16T21:29:17.466Z,68.70
2018-04-16T21:31:47.143Z,68.90
2018-04-16T21:34:16.848Z,68.60
2018-04-16T21:36:47.344Z,69.60
2018-04-16T21:39:17.019Z,69.40
2018-04-16T21:41:46.696Z,69.50
2018-04-16T21:44:17.148Z,70.00
2018-04-16T21:46:46.571Z,70.00
2018-04-16T21:49:16.281Z,70.30
2018-04-16T21:51:45.986Z,69.80
2018-04-16T21:54:15.687Z,70.10
2018-04-16T21:56:45.131Z,70.40
2018-04-16T21:59:14.827Z,70.80
2018-04-16T22:01:44.567Z,71.20
2018-04-16T22:04:15.062Z,71.20
2018-04-16T22:06:44.727Z,71.20
2018-04-16T22:09:14.444Z,71.50
2018-04-16T22:11:44.116Z,71.90
2018-04-16T22:14:14.579Z,72.00
2018-04-16T22:16:44.255Z,72.00
2018-04-16T22:19:14.714Z,72.40
2018-04-16T22:21:44.374Z,72.40
2018-04-16T22:24:14.075Z,72.20
2018-04-16T22:26:43.763Z,71.10
2018-04-16T22:29:13.463Z,70.80
2018-04-16T22:31:43.131Z,70.70
2018-04-16T22:34:13.359Z,70.80
2018-04-16T22:36:43.792Z,71.00
2018-04-16T22:39:13.251Z,71.00
2018-04-16T22:41:42.918Z,70.70
2018-04-16T22:44:12.603Z,70.90
2018-04-16T22:46:43.048Z,71.20
2018-04-16T22:49:12.739Z,71.20
2018-04-16T22:51:42.930Z,72.20
2018-04-16T22:54:12.635Z,72.20
2018-04-16T22:56:42.531Z,72.20
2018-04-16T22:59:12.224Z,72.60
2018-04-16T23:01:42.189Z,72.50
2018-04-16T23:04:12.783Z,71.90
2018-04-16T23:06:42.463Z,71.90
2018-04-16T23:09:12.165Z,71.70
2018-04-16T23:11:42.595Z,71.80
2018-04-16T23:14:12.308Z,71.80
2018-04-16T23:16:42.178Z,72.10
2018-04-16T23:19:12.655Z,71.50
2018-04-16T23:21:42.359Z,71.50
2018-04-16T23:24:12.045Z,71.40
2018-04-16T23:26:42.163Z,71.80
2018-04-16T23:29:12.597Z,71.30
2018-04-16T23:31:42.295Z,71.20
2018-04-16T23:34:12.748Z,71.00
2018-04-16T23:36:42.447Z,71.00
2018-04-16T23:39:12.131Z,71.00
2018-04-16T23:41:41.819Z,71.10
2018-04-16T23:44:11.480Z,71.50
2018-04-16T23:46:41.182Z,71.50
2018-04-16T23:49:11.613Z,72.10
2018-04-16T23:51:41.313Z,72.10
2018-04-16T23:54:10.972Z,72.50
2018-04-16T23:56:40.679Z,72.10
2018-04-16T23:59:10.347Z,72.00
